sensor_id;sensor_type;location;lat;lon;timestamp;P1;durP1;ratioP1;P2;durP2;ratioP2
4307;SDS011;2167;53.448;9.984;2023-03-21T00:00:22;15.33;;;9.90;;
4307;SDS011;2167;53.448;9.984;2023-03-21T00:02:51;14.20;;;8.50;;
4307;SDS011;2167;53.448;9.984;2023-03-21T00:05:16;19.95;;;11.40;;
4307;SDS011;2167;53.448;9.984;2023-03-21T00:07:42;20.90;;;11.10;;
4307;SDS011;2167;53.448;9.984;2023-03-21T00:10:11;16.30;;;9.10;;
4307;SDS011;2167;53.448;9.984;2023-03-21T00:12:40;21.60;;;9.60;;
4307;SDS011;2167;53.448;9.984;2023-03-21T00:15:07;16.20;;;9.53;;
4307;SDS011;2167;53.448;9.984;2023-03-21T00:17:34;20.97;;;10.70;;
4307;SDS011;2167;53.448;9.984;2023-03-21T00:20:03;21.70;;;11.03;;
4307;SDS011;2167;53.448;9.984;2023-03-21T00:22:39;18.17;;;9.17;;
4307;SDS011;2167;53.448;9.984;2023-03-21T00:25:06;16.10;;;9.43;;
4307;SDS011;2167;53.448;9.984;2023-03-21T00:27:32;25.90;;;12.07;;
4307;SDS011;2167;53.448;9.984;2023-03-21T00:29:59;18.33;;;9.93;;
4307;SDS011;2167;53.448;9.984;2023-03-21T00:32:24;21.13;;;11.90;;
4307;SDS011;2167;53.448;9.984;2023-03-21T00:34:50;21.53;;;10.20;;
4307;SDS011;2167;53.448;9.984;2023-03-21T00:37:16;29.05;;;13.85;;
4307;SDS011;2167;53.448;9.984;2023-03-21T00:39:46;25.43;;;13.43;;
4307;SDS011;2167;53.448;9.984;2023-03-21T00:42:16;26.20;;;13.13;;
4307;SDS011;2167;53.448;9.984;2023-03-21T00:44:42;20.90;;;11.80;;
4307;SDS011;2167;53.448;9.984;2023-03-21T00:47:11;20.17;;;10.70;;
4307;SDS011;2167;53.448;9.984;2023-03-21T00:49:40;24.20;;;12.27;;
4307;SDS011;2167;53.448;9.984;2023-03-21T00:52:07;16.33;;;10.50;;
4307;SDS011;2167;53.448;9.984;2023-03-21T00:54:34;28.73;;;13.00;;
4307;SDS011;2167;53.448;9.984;2023-03-21T00:57:02;26.17;;;12.57;;
4307;SDS011;2167;53.448;9.984;2023-03-21T00:59:29;26.00;;;12.83;;
4307;SDS011;2167;53.448;9.984;2023-03-21T01:01:56;22.10;;;10.60;;
4307;SDS011;2167;53.448;9.984;2023-03-21T01:04:24;23.53;;;11.33;;
4307;SDS011;2167;53.448;9.984;2023-03-21T01:06:50;26.70;;;11.20;;
4307;SDS011;2167;53.448;9.984;2023-03-21T01:09:20;29.05;;;14.00;;
4307;SDS011;2167;53.448;9.984;2023-03-21T01:11:47;23.00;;;11.90;;
4307;SDS011;2167;53.448;9.984;2023-03-21T01:14:17;28.00;;;12.50;;
4307;SDS011;2167;53.448;9.984;2023-03-21T01:16:44;26.90;;;13.20;;
4307;SDS011;2167;53.448;9.984;2023-03-21T01:19:11;21.03;;;12.00;;
4307;SDS011;2167;53.448;9.984;2023-03-21T01:21:38;25.07;;;11.83;;
4307;SDS011;2167;53.448;9.984;2023-03-21T01:24:07;22.20;;;12.47;;
4307;SDS011;2167;53.448;9.984;2023-03-21T01:26:34;22.40;;;11.00;;
4307;SDS011;2167;53.448;9.984;2023-03-21T01:29:01;21.00;;;11.00;;
4307;SDS011;2167;53.448;9.984;2023-03-21T01:31:27;22.77;;;11.37;;
4307;SDS011;2167;53.448;9.984;2023-03-21T01:33:53;19.77;;;10.30;;
4307;SDS011;2167;53.448;9.984;2023-03-21T01:36:22;26.57;;;12.70;;
4307;SDS011;2167;53.448;9.984;2023-03-21T01:38:49;26.37;;;12.50;;
4307;SDS011;2167;53.448;9.984;2023-03-21T01:43:57;28.30;;;13.70;;
4307;SDS011;2167;53.448;9.984;2023-03-21T01:46:42;23.70;;;10.70;;
4307;SDS011;2167;53.448;9.984;2023-03-21T01:51:49;20.10;;;9.80;;
4307;SDS011;2167;53.448;9.984;2023-03-21T01:54:20;16.70;;;9.60;;
4307;SDS011;2167;53.448;9.984;2023-03-21T01:59:42;20.30;;;9.30;;
4307;SDS011;2167;53.448;9.984;2023-03-21T02:02:15;27.13;;;12.50;;
4307;SDS011;2167;53.448;9.984;2023-03-21T02:04:44;23.03;;;11.97;;
4307;SDS011;2167;53.448;9.984;2023-03-21T02:07:16;23.20;;;11.50;;
4307;SDS011;2167;53.448;9.984;2023-03-21T02:09:47;18.37;;;11.20;;
4307;SDS011;2167;53.448;9.984;2023-03-21T02:12:15;28.00;;;12.98;;
4307;SDS011;2167;53.448;9.984;2023-03-21T02:14:42;24.00;;;12.50;;
4307;SDS011;2167;53.448;9.984;2023-03-21T02:17:20;25.07;;;13.30;;
4307;SDS011;2167;53.448;9.984;2023-03-21T02:20:01;28.90;;;11.60;;
4307;SDS011;2167;53.448;9.984;2023-03-21T02:22:58;23.80;;;10.70;;
4307;SDS011;2167;53.448;9.984;2023-03-21T02:36:46;25.83;;;12.80;;
4307;SDS011;2167;53.448;9.984;2023-03-21T02:39:13;24.40;;;11.30;;
4307;SDS011;2167;53.448;9.984;2023-03-21T02:41:49;26.17;;;13.20;;
4307;SDS011;2167;53.448;9.984;2023-03-21T02:47:01;26.37;;;12.90;;
4307;SDS011;2167;53.448;9.984;2023-03-21T02:49:33;27.67;;;12.90;;
4307;SDS011;2167;53.448;9.984;2023-03-21T02:52:07;21.23;;;11.87;;
4307;SDS011;2167;53.448;9.984;2023-03-21T02:54:36;23.93;;;12.23;;
4307;SDS011;2167;53.448;9.984;2023-03-21T02:57:02;32.50;;;15.20;;
4307;SDS011;2167;53.448;9.984;2023-03-21T02:59:29;29.97;;;12.80;;
4307;SDS011;2167;53.448;9.984;2023-03-21T03:01:55;21.00;;;11.97;;
4307;SDS011;2167;53.448;9.984;2023-03-21T03:04:23;22.40;;;12.77;;
4307;SDS011;2167;53.448;9.984;2023-03-21T03:07:00;34.37;;;14.27;;
4307;SDS011;2167;53.448;9.984;2023-03-21T03:15:12;26.37;;;14.80;;
4307;SDS011;2167;53.448;9.984;2023-03-21T03:21:00;24.30;;;11.97;;
4307;SDS011;2167;53.448;9.984;2023-03-21T03:26:24;28.30;;;14.60;;
4307;SDS011;2167;53.448;9.984;2023-03-21T03:29:08;24.70;;;12.83;;
4307;SDS011;2167;53.448;9.984;2023-03-21T03:31:41;27.73;;;13.17;;
4307;SDS011;2167;53.448;9.984;2023-03-21T03:34:12;24.43;;;12.63;;
4307;SDS011;2167;53.448;9.984;2023-03-21T03:36:43;26.67;;;13.37;;
4307;SDS011;2167;53.448;9.984;2023-03-21T03:39:12;28.03;;;14.40;;
4307;SDS011;2167;53.448;9.984;2023-03-21T03:41:44;25.33;;;12.17;;
4307;SDS011;2167;53.448;9.984;2023-03-21T03:44:22;28.67;;;15.07;;
4307;SDS011;2167;53.448;9.984;2023-03-21T03:46:52;24.43;;;13.07;;
4307;SDS011;2167;53.448;9.984;2023-03-21T03:49:24;25.97;;;14.00;;
4307;SDS011;2167;53.448;9.984;2023-03-21T03:51:56;27.50;;;13.70;;
4307;SDS011;2167;53.448;9.984;2023-03-21T03:54:41;31.40;;;13.37;;
4307;SDS011;2167;53.448;9.984;2023-03-21T03:57:09;26.63;;;12.17;;
4307;SDS011;2167;53.448;9.984;2023-03-21T03:59:37;28.60;;;14.00;;
4307;SDS011;2167;53.448;9.984;2023-03-21T04:02:05;24.03;;;11.93;;
4307;SDS011;2167;53.448;9.984;2023-03-21T04:04:31;25.40;;;13.10;;
4307;SDS011;2167;53.448;9.984;2023-03-21T04:06:57;25.77;;;13.87;;
4307;SDS011;2167;53.448;9.984;2023-03-21T04:09:23;30.13;;;15.23;;
4307;SDS011;2167;53.448;9.984;2023-03-21T04:11:49;26.50;;;14.80;;
4307;SDS011;2167;53.448;9.984;2023-03-21T04:14:15;29.40;;;13.57;;
4307;SDS011;2167;53.448;9.984;2023-03-21T04:16:41;27.37;;;14.27;;
4307;SDS011;2167;53.448;9.984;2023-03-21T04:19:06;37.92;;;19.48;;
4307;SDS011;2167;53.448;9.984;2023-03-21T04:21:32;25.97;;;14.40;;
4307;SDS011;2167;53.448;9.984;2023-03-21T04:23:57;27.63;;;13.40;;
4307;SDS011;2167;53.448;9.984;2023-03-21T04:26:23;38.43;;;14.30;;
4307;SDS011;2167;53.448;9.984;2023-03-21T04:28:50;33.13;;;14.60;;
4307;SDS011;2167;53.448;9.984;2023-03-21T04:31:16;29.73;;;12.83;;
4307;SDS011;2167;53.448;9.984;2023-03-21T04:33:42;37.30;;;14.43;;
4307;SDS011;2167;53.448;9.984;2023-03-21T04:36:08;25.27;;;13.77;;
4307;SDS011;2167;53.448;9.984;2023-03-21T04:38:49;24.20;;;13.77;;
4307;SDS011;2167;53.448;9.984;2023-03-21T04:41:16;34.80;;;15.60;;
4307;SDS011;2167;53.448;9.984;2023-03-21T04:43:41;30.10;;;15.27;;
4307;SDS011;2167;53.448;9.984;2023-03-21T04:46:08;28.00;;;14.80;;
4307;SDS011;2167;53.448;9.984;2023-03-21T04:48:34;29.33;;;13.13;;
4307;SDS011;2167;53.448;9.984;2023-03-21T04:51:00;30.67;;;15.07;;
4307;SDS011;2167;53.448;9.984;2023-03-21T04:53:26;26.57;;;13.07;;
4307;SDS011;2167;53.448;9.984;2023-03-21T04:55:51;25.40;;;14.60;;
4307;SDS011;2167;53.448;9.984;2023-03-21T04:58:17;33.70;;;17.27;;
4307;SDS011;2167;53.448;9.984;2023-03-21T05:00:44;24.17;;;14.27;;
4307;SDS011;2167;53.448;9.984;2023-03-21T05:03:10;31.60;;;14.10;;
4307;SDS011;2167;53.448;9.984;2023-03-21T05:05:43;25.50;;;13.93;;
4307;SDS011;2167;53.448;9.984;2023-03-21T05:08:09;37.27;;;15.13;;
4307;SDS011;2167;53.448;9.984;2023-03-21T05:10:35;27.63;;;15.90;;
4307;SDS011;2167;53.448;9.984;2023-03-21T05:13:00;29.43;;;13.50;;
4307;SDS011;2167;53.448;9.984;2023-03-21T05:15:26;25.10;;;14.83;;
4307;SDS011;2167;53.448;9.984;2023-03-21T05:17:52;24.33;;;12.23;;
4307;SDS011;2167;53.448;9.984;2023-03-21T05:20:17;33.70;;;16.57;;
4307;SDS011;2167;53.448;9.984;2023-03-21T05:22:43;29.93;;;14.80;;
4307;SDS011;2167;53.448;9.984;2023-03-21T05:25:10;30.83;;;16.10;;
4307;SDS011;2167;53.448;9.984;2023-03-21T05:27:37;25.90;;;14.47;;
4307;SDS011;2167;53.448;9.984;2023-03-21T05:30:13;26.03;;;15.70;;
4307;SDS011;2167;53.448;9.984;2023-03-21T05:32:40;30.30;;;15.10;;
4307;SDS011;2167;53.448;9.984;2023-03-21T05:35:06;28.20;;;15.03;;
4307;SDS011;2167;53.448;9.984;2023-03-21T05:37:32;27.90;;;14.80;;
4307;SDS011;2167;53.448;9.984;2023-03-21T05:39:58;33.10;;;15.33;;
4307;SDS011;2167;53.448;9.984;2023-03-21T05:42:23;32.33;;;14.80;;
4307;SDS011;2167;53.448;9.984;2023-03-21T05:44:49;33.97;;;15.97;;
4307;SDS011;2167;53.448;9.984;2023-03-21T05:47:15;26.97;;;13.83;;
4307;SDS011;2167;53.448;9.984;2023-03-21T05:49:42;32.33;;;15.53;;
4307;SDS011;2167;53.448;9.984;2023-03-21T05:52:08;29.88;;;16.77;;
4307;SDS011;2167;53.448;9.984;2023-03-21T05:54:33;32.60;;;16.43;;
4307;SDS011;2167;53.448;9.984;2023-03-21T05:57:00;41.13;;;16.17;;
4307;SDS011;2167;53.448;9.984;2023-03-21T05:59:26;24.77;;;14.07;;
4307;SDS011;2167;53.448;9.984;2023-03-21T06:01:52;30.87;;;15.90;;
4307;SDS011;2167;53.448;9.984;2023-03-21T06:04:17;32.20;;;14.80;;
4307;SDS011;2167;53.448;9.984;2023-03-21T06:06:43;24.33;;;14.20;;
4307;SDS011;2167;53.448;9.984;2023-03-21T06:09:08;29.60;;;15.43;;
4307;SDS011;2167;53.448;9.984;2023-03-21T06:11:35;28.77;;;15.97;;
4307;SDS011;2167;53.448;9.984;2023-03-21T06:14:02;29.17;;;15.27;;
4307;SDS011;2167;53.448;9.984;2023-03-21T06:16:27;22.20;;;13.47;;
4307;SDS011;2167;53.448;9.984;2023-03-21T06:18:54;23.80;;;13.20;;
4307;SDS011;2167;53.448;9.984;2023-03-21T06:21:19;33.07;;;14.20;;
4307;SDS011;2167;53.448;9.984;2023-03-21T06:23:47;36.22;;;18.75;;
4307;SDS011;2167;53.448;9.984;2023-03-21T06:26:15;29.77;;;15.53;;
4307;SDS011;2167;53.448;9.984;2023-03-21T06:28:47;23.80;;;13.67;;
4307;SDS011;2167;53.448;9.984;2023-03-21T06:31:13;29.10;;;14.00;;
4307;SDS011;2167;53.448;9.984;2023-03-21T06:33:39;28.20;;;14.53;;
4307;SDS011;2167;53.448;9.984;2023-03-21T06:36:05;24.90;;;14.67;;
4307;SDS011;2167;53.448;9.984;2023-03-21T06:38:30;27.13;;;14.73;;
4307;SDS011;2167;53.448;9.984;2023-03-21T06:40:56;27.33;;;16.20;;
4307;SDS011;2167;53.448;9.984;2023-03-21T06:43:22;28.83;;;14.00;;
4307;SDS011;2167;53.448;9.984;2023-03-21T06:45:47;30.67;;;14.37;;
4307;SDS011;2167;53.448;9.984;2023-03-21T06:48:13;30.77;;;15.07;;
4307;SDS011;2167;53.448;9.984;2023-03-21T06:50:39;36.00;;;19.13;;
4307;SDS011;2167;53.448;9.984;2023-03-21T06:53:05;32.03;;;16.87;;
4307;SDS011;2167;53.448;9.984;2023-03-21T06:55:30;31.80;;;15.40;;
4307;SDS011;2167;53.448;9.984;2023-03-21T06:57:56;32.37;;;14.73;;
4307;SDS011;2167;53.448;9.984;2023-03-21T07:00:22;33.37;;;16.40;;
4307;SDS011;2167;53.448;9.984;2023-03-21T07:02:48;28.70;;;14.57;;
4307;SDS011;2167;53.448;9.984;2023-03-21T07:05:14;27.33;;;16.77;;
4307;SDS011;2167;53.448;9.984;2023-03-21T07:07:40;36.63;;;15.20;;
4307;SDS011;2167;53.448;9.984;2023-03-21T07:10:08;32.50;;;17.03;;
4307;SDS011;2167;53.448;9.984;2023-03-21T07:12:34;32.30;;;16.00;;
4307;SDS011;2167;53.448;9.984;2023-03-21T07:15:03;29.40;;;14.00;;
4307;SDS011;2167;53.448;9.984;2023-03-21T07:17:31;37.10;;;16.03;;
4307;SDS011;2167;53.448;9.984;2023-03-21T07:19:57;28.80;;;15.00;;
4307;SDS011;2167;53.448;9.984;2023-03-21T07:22:23;37.00;;;17.20;;
4307;SDS011;2167;53.448;9.984;2023-03-21T07:24:48;36.73;;;18.97;;
4307;SDS011;2167;53.448;9.984;2023-03-21T07:27:14;30.80;;;17.37;;
4307;SDS011;2167;53.448;9.984;2023-03-21T07:29:40;35.73;;;17.03;;
4307;SDS011;2167;53.448;9.984;2023-03-21T07:32:06;34.03;;;19.40;;
4307;SDS011;2167;53.448;9.984;2023-03-21T07:34:33;33.70;;;17.70;;
4307;SDS011;2167;53.448;9.984;2023-03-21T07:36:59;30.40;;;15.40;;
4307;SDS011;2167;53.448;9.984;2023-03-21T07:39:25;30.97;;;18.00;;
4307;SDS011;2167;53.448;9.984;2023-03-21T07:41:51;38.23;;;17.20;;
4307;SDS011;2167;53.448;9.984;2023-03-21T07:44:19;37.50;;;16.83;;
4307;SDS011;2167;53.448;9.984;2023-03-21T07:46:45;32.03;;;15.50;;
4307;SDS011;2167;53.448;9.984;2023-03-21T07:49:11;28.23;;;14.40;;
4307;SDS011;2167;53.448;9.984;2023-03-21T07:51:36;31.37;;;17.37;;
4307;SDS011;2167;53.448;9.984;2023-03-21T07:54:02;28.77;;;16.30;;
4307;SDS011;2167;53.448;9.984;2023-03-21T07:56:28;39.13;;;20.17;;
4307;SDS011;2167;53.448;9.984;2023-03-21T07:58:53;37.87;;;17.13;;
4307;SDS011;2167;53.448;9.984;2023-03-21T08:01:19;42.33;;;19.97;;
4307;SDS011;2167;53.448;9.984;2023-03-21T08:03:45;35.80;;;16.80;;
4307;SDS011;2167;53.448;9.984;2023-03-21T08:06:11;38.80;;;17.07;;
4307;SDS011;2167;53.448;9.984;2023-03-21T08:08:37;34.83;;;18.00;;
4307;SDS011;2167;53.448;9.984;2023-03-21T08:11:03;31.83;;;13.93;;
4307;SDS011;2167;53.448;9.984;2023-03-21T08:13:29;29.70;;;15.23;;
4307;SDS011;2167;53.448;9.984;2023-03-21T08:15:55;32.83;;;16.57;;
4307;SDS011;2167;53.448;9.984;2023-03-21T08:18:20;27.77;;;15.50;;
4307;SDS011;2167;53.448;9.984;2023-03-21T08:20:50;36.03;;;17.57;;
4307;SDS011;2167;53.448;9.984;2023-03-21T08:23:16;34.47;;;15.83;;
4307;SDS011;2167;53.448;9.984;2023-03-21T08:25:42;38.63;;;20.40;;
4307;SDS011;2167;53.448;9.984;2023-03-21T08:28:08;33.50;;;17.63;;
4307;SDS011;2167;53.448;9.984;2023-03-21T08:30:33;32.60;;;15.23;;
4307;SDS011;2167;53.448;9.984;2023-03-21T08:32:59;31.67;;;14.53;;
4307;SDS011;2167;53.448;9.984;2023-03-21T08:35:28;29.43;;;13.93;;
4307;SDS011;2167;53.448;9.984;2023-03-21T08:37:55;29.03;;;13.67;;
4307;SDS011;2167;53.448;9.984;2023-03-21T08:40:21;32.00;;;14.83;;
4307;SDS011;2167;53.448;9.984;2023-03-21T08:42:47;25.20;;;14.00;;
4307;SDS011;2167;53.448;9.984;2023-03-21T08:45:13;27.63;;;15.47;;
4307;SDS011;2167;53.448;9.984;2023-03-21T08:47:39;36.27;;;13.77;;
4307;SDS011;2167;53.448;9.984;2023-03-21T08:50:05;31.53;;;16.47;;
4307;SDS011;2167;53.448;9.984;2023-03-21T08:52:32;29.23;;;15.43;;
4307;SDS011;2167;53.448;9.984;2023-03-21T08:54:58;33.97;;;14.63;;
4307;SDS011;2167;53.448;9.984;2023-03-21T08:57:23;29.87;;;15.87;;
4307;SDS011;2167;53.448;9.984;2023-03-21T08:59:49;30.53;;;15.30;;
4307;SDS011;2167;53.448;9.984;2023-03-21T09:02:15;30.40;;;15.97;;
4307;SDS011;2167;53.448;9.984;2023-03-21T09:04:44;27.80;;;13.93;;
4307;SDS011;2167;53.448;9.984;2023-03-21T09:07:10;43.30;;;16.67;;
4307;SDS011;2167;53.448;9.984;2023-03-21T09:09:41;32.70;;;16.53;;
4307;SDS011;2167;53.448;9.984;2023-03-21T09:12:07;28.47;;;14.53;;
4307;SDS011;2167;53.448;9.984;2023-03-21T09:14:33;37.27;;;16.97;;
4307;SDS011;2167;53.448;9.984;2023-03-21T09:16:59;37.30;;;18.27;;
4307;SDS011;2167;53.448;9.984;2023-03-21T09:19:25;34.80;;;16.17;;
4307;SDS011;2167;53.448;9.984;2023-03-21T09:21:51;37.17;;;17.70;;
4307;SDS011;2167;53.448;9.984;2023-03-21T09:24:18;42.00;;;16.97;;
4307;SDS011;2167;53.448;9.984;2023-03-21T09:26:44;41.58;;;19.52;;
4307;SDS011;2167;53.448;9.984;2023-03-21T09:29:10;37.87;;;17.67;;
4307;SDS011;2167;53.448;9.984;2023-03-21T09:31:36;37.17;;;14.67;;
4307;SDS011;2167;53.448;9.984;2023-03-21T09:34:03;34.67;;;16.80;;
4307;SDS011;2167;53.448;9.984;2023-03-21T09:36:29;50.20;;;21.20;;
4307;SDS011;2167;53.448;9.984;2023-03-21T09:38:55;35.83;;;16.50;;
4307;SDS011;2167;53.448;9.984;2023-03-21T09:47:40;37.63;;;16.00;;
4307;SDS011;2167;53.448;9.984;2023-03-21T09:52:36;28.97;;;14.80;;
4307;SDS011;2167;53.448;9.984;2023-03-21T09:55:22;30.23;;;14.23;;
4307;SDS011;2167;53.448;9.984;2023-03-21T09:58:03;37.63;;;18.67;;
4307;SDS011;2167;53.448;9.984;2023-03-21T10:00:50;35.97;;;16.20;;
4307;SDS011;2167;53.448;9.984;2023-03-21T10:05:48;32.43;;;14.00;;
4307;SDS011;2167;53.448;9.984;2023-03-21T10:08:20;29.50;;;13.73;;
4307;SDS011;2167;53.448;9.984;2023-03-21T10:10:53;29.43;;;14.10;;
4307;SDS011;2167;53.448;9.984;2023-03-21T10:13:27;28.10;;;13.50;;
4307;SDS011;2167;53.448;9.984;2023-03-21T10:15:56;36.37;;;16.23;;
4307;SDS011;2167;53.448;9.984;2023-03-21T10:18:25;32.03;;;14.93;;
4307;SDS011;2167;53.448;9.984;2023-03-21T10:20:53;30.43;;;14.57;;
4307;SDS011;2167;53.448;9.984;2023-03-21T10:23:20;23.40;;;10.90;;
4307;SDS011;2167;53.448;9.984;2023-03-21T10:25:51;23.30;;;11.87;;
4307;SDS011;2167;53.448;9.984;2023-03-21T10:28:24;29.20;;;15.88;;
4307;SDS011;2167;53.448;9.984;2023-03-21T10:30:53;23.00;;;11.70;;
4307;SDS011;2167;53.448;9.984;2023-03-21T10:33:50;26.33;;;13.30;;
4307;SDS011;2167;53.448;9.984;2023-03-21T10:36:21;25.93;;;12.97;;
4307;SDS011;2167;53.448;9.984;2023-03-21T10:38:51;23.17;;;12.70;;
4307;SDS011;2167;53.448;9.984;2023-03-21T10:41:24;33.30;;;12.90;;
4307;SDS011;2167;53.448;9.984;2023-03-21T10:44:03;23.70;;;11.17;;
4307;SDS011;2167;53.448;9.984;2023-03-21T10:46:38;25.73;;;12.47;;
4307;SDS011;2167;53.448;9.984;2023-03-21T10:49:43;27.60;;;11.80;;
4307;SDS011;2167;53.448;9.984;2023-03-21T10:52:11;30.13;;;11.80;;
4307;SDS011;2167;53.448;9.984;2023-03-21T10:54:39;27.43;;;12.10;;
4307;SDS011;2167;53.448;9.984;2023-03-21T10:57:07;27.20;;;14.33;;
4307;SDS011;2167;53.448;9.984;2023-03-21T10:59:43;31.03;;;13.50;;
4307;SDS011;2167;53.448;9.984;2023-03-21T11:02:20;30.10;;;14.10;;
4307;SDS011;2167;53.448;9.984;2023-03-21T11:04:54;29.70;;;12.73;;
4307;SDS011;2167;53.448;9.984;2023-03-21T11:07:22;36.23;;;14.80;;
4307;SDS011;2167;53.448;9.984;2023-03-21T11:09:57;30.70;;;14.83;;
4307;SDS011;2167;53.448;9.984;2023-03-21T11:12:34;34.30;;;13.83;;
4307;SDS011;2167;53.448;9.984;2023-03-21T11:17:55;25.00;;;13.97;;
4307;SDS011;2167;53.448;9.984;2023-03-21T11:20:22;30.63;;;13.83;;
4307;SDS011;2167;53.448;9.984;2023-03-21T11:22:48;28.07;;;14.40;;
4307;SDS011;2167;53.448;9.984;2023-03-21T11:25:23;30.23;;;13.67;;
4307;SDS011;2167;53.448;9.984;2023-03-21T11:27:55;29.00;;;13.70;;
4307;SDS011;2167;53.448;9.984;2023-03-21T11:30:22;25.20;;;15.27;;
4307;SDS011;2167;53.448;9.984;2023-03-21T11:32:50;32.50;;;15.80;;
4307;SDS011;2167;53.448;9.984;2023-03-21T11:35:23;29.27;;;14.00;;
4307;SDS011;2167;53.448;9.984;2023-03-21T11:37:56;29.90;;;13.97;;
4307;SDS011;2167;53.448;9.984;2023-03-21T11:45:31;36.00;;;14.43;;
4307;SDS011;2167;53.448;9.984;2023-03-21T11:47:59;30.93;;;14.03;;
4307;SDS011;2167;53.448;9.984;2023-03-21T12:06:37;30.13;;;13.43;;
4307;SDS011;2167;53.448;9.984;2023-03-21T12:09:38;27.47;;;10.90;;
4307;SDS011;2167;53.448;9.984;2023-03-21T12:15:25;21.77;;;11.00;;
4307;SDS011;2167;53.448;9.984;2023-03-21T12:20:46;21.57;;;9.10;;
4307;SDS011;2167;53.448;9.984;2023-03-21T12:28:46;25.30;;;11.00;;
4307;SDS011;2167;53.448;9.984;2023-03-21T12:31:22;11.27;;;7.03;;
4307;SDS011;2167;53.448;9.984;2023-03-21T12:39:40;15.50;;;8.70;;
4307;SDS011;2167;53.448;9.984;2023-03-21T12:47:41;14.30;;;8.07;;
4307;SDS011;2167;53.448;9.984;2023-03-21T12:50:14;12.83;;;8.83;;
4307;SDS011;2167;53.448;9.984;2023-03-21T12:52:47;14.47;;;7.47;;
4307;SDS011;2167;53.448;9.984;2023-03-21T12:57:51;11.47;;;6.83;;
4307;SDS011;2167;53.448;9.984;2023-03-21T13:00:23;13.52;;;9.20;;
4307;SDS011;2167;53.448;9.984;2023-03-21T13:02:59;13.40;;;8.00;;
4307;SDS011;2167;53.448;9.984;2023-03-21T13:05:39;16.40;;;8.40;;
4307;SDS011;2167;53.448;9.984;2023-03-21T13:10:59;13.90;;;8.07;;
4307;SDS011;2167;53.448;9.984;2023-03-21T13:16:16;16.30;;;8.17;;
4307;SDS011;2167;53.448;9.984;2023-03-21T13:30:00;18.77;;;8.17;;
4307;SDS011;2167;53.448;9.984;2023-03-21T13:32:40;10.33;;;5.87;;
4307;SDS011;2167;53.448;9.984;2023-03-21T13:37:34;18.60;;;8.60;;
4307;SDS011;2167;53.448;9.984;2023-03-21T13:40:05;14.80;;;7.33;;
4307;SDS011;2167;53.448;9.984;2023-03-21T13:42:41;11.60;;;7.53;;
4307;SDS011;2167;53.448;9.984;2023-03-21T13:45:09;11.90;;;6.93;;
4307;SDS011;2167;53.448;9.984;2023-03-21T13:50:22;10.07;;;6.90;;
4307;SDS011;2167;53.448;9.984;2023-03-21T13:55:44;10.80;;;7.13;;
4307;SDS011;2167;53.448;9.984;2023-03-21T13:59:14;14.87;;;7.60;;
4307;SDS011;2167;53.448;9.984;2023-03-21T14:01:12;16.23;;;8.88;;
4307;SDS011;2167;53.448;9.984;2023-03-21T14:03:58;14.20;;;7.10;;
4307;SDS011;2167;53.448;9.984;2023-03-21T14:06:54;13.93;;;7.20;;
4307;SDS011;2167;53.448;9.984;2023-03-21T14:12:09;18.20;;;8.73;;
4307;SDS011;2167;53.448;9.984;2023-03-21T14:14:46;11.00;;;7.07;;
4307;SDS011;2167;53.448;9.984;2023-03-21T14:17:22;10.97;;;6.90;;
4307;SDS011;2167;53.448;9.984;2023-03-21T14:19:53;15.13;;;7.63;;
4307;SDS011;2167;53.448;9.984;2023-03-21T14:22:20;14.33;;;6.13;;
4307;SDS011;2167;53.448;9.984;2023-03-21T14:24:59;10.60;;;7.17;;
4307;SDS011;2167;53.448;9.984;2023-03-21T14:27:27;15.13;;;7.70;;
4307;SDS011;2167;53.448;9.984;2023-03-21T14:29:56;14.47;;;8.13;;
4307;SDS011;2167;53.448;9.984;2023-03-21T14:32:24;15.50;;;8.70;;
4307;SDS011;2167;53.448;9.984;2023-03-21T14:34:52;14.73;;;7.03;;
4307;SDS011;2167;53.448;9.984;2023-03-21T14:37:29;14.40;;;7.50;;
4307;SDS011;2167;53.448;9.984;2023-03-21T14:39:57;11.13;;;6.40;;
4307;SDS011;2167;53.448;9.984;2023-03-21T14:42:33;11.97;;;7.30;;
4307;SDS011;2167;53.448;9.984;2023-03-21T14:45:05;12.17;;;7.00;;
4307;SDS011;2167;53.448;9.984;2023-03-21T14:47:56;14.43;;;6.90;;
4307;SDS011;2167;53.448;9.984;2023-03-21T14:50:40;11.93;;;6.80;;
4307;SDS011;2167;53.448;9.984;2023-03-21T14:53:19;11.50;;;6.00;;
4307;SDS011;2167;53.448;9.984;2023-03-21T14:55:56;12.00;;;6.40;;
4307;SDS011;2167;53.448;9.984;2023-03-21T14:58:27;14.90;;;6.40;;
4307;SDS011;2167;53.448;9.984;2023-03-21T15:00:56;12.63;;;7.23;;
4307;SDS011;2167;53.448;9.984;2023-03-21T15:03:25;12.25;;;7.30;;
4307;SDS011;2167;53.448;9.984;2023-03-21T15:05:52;11.60;;;7.87;;
4307;SDS011;2167;53.448;9.984;2023-03-21T15:08:19;13.73;;;8.07;;
4307;SDS011;2167;53.448;9.984;2023-03-21T15:10:57;13.97;;;7.30;;
4307;SDS011;2167;53.448;9.984;2023-03-21T15:13:25;15.00;;;8.00;;
4307;SDS011;2167;53.448;9.984;2023-03-21T15:15:56;10.60;;;6.17;;
4307;SDS011;2167;53.448;9.984;2023-03-21T15:18:26;12.70;;;7.20;;
4307;SDS011;2167;53.448;9.984;2023-03-21T15:20:56;10.33;;;6.33;;
4307;SDS011;2167;53.448;9.984;2023-03-21T15:23:39;11.30;;;6.23;;
4307;SDS011;2167;53.448;9.984;2023-03-21T15:26:12;11.53;;;7.10;;
4307;SDS011;2167;53.448;9.984;2023-03-21T15:28:40;8.20;;;6.30;;
4307;SDS011;2167;53.448;9.984;2023-03-21T15:31:13;12.40;;;7.13;;
4307;SDS011;2167;53.448;9.984;2023-03-21T15:33:46;14.10;;;8.50;;
4307;SDS011;2167;53.448;9.984;2023-03-21T15:36:17;8.40;;;6.00;;
4307;SDS011;2167;53.448;9.984;2023-03-21T15:38:46;13.63;;;5.33;;
4307;SDS011;2167;53.448;9.984;2023-03-21T15:41:24;12.93;;;5.57;;
4307;SDS011;2167;53.448;9.984;2023-03-21T15:51:42;9.30;;;5.23;;
4307;SDS011;2167;53.448;9.984;2023-03-21T15:54:15;10.17;;;5.60;;
4307;SDS011;2167;53.448;9.984;2023-03-21T15:56:46;14.13;;;5.93;;
4307;SDS011;2167;53.448;9.984;2023-03-21T15:59:15;14.30;;;6.17;;
4307;SDS011;2167;53.448;9.984;2023-03-21T16:01:46;10.33;;;5.80;;
4307;SDS011;2167;53.448;9.984;2023-03-21T16:04:12;9.60;;;5.10;;
4307;SDS011;2167;53.448;9.984;2023-03-21T16:06:45;9.60;;;5.63;;
4307;SDS011;2167;53.448;9.984;2023-03-21T16:09:18;7.60;;;4.87;;
4307;SDS011;2167;53.448;9.984;2023-03-21T16:11:52;14.40;;;5.80;;
4307;SDS011;2167;53.448;9.984;2023-03-21T16:14:19;6.80;;;4.50;;
4307;SDS011;2167;53.448;9.984;2023-03-21T16:16:46;7.70;;;4.97;;
4307;SDS011;2167;53.448;9.984;2023-03-21T16:19:13;9.67;;;6.27;;
4307;SDS011;2167;53.448;9.984;2023-03-21T16:21:39;7.83;;;4.17;;
4307;SDS011;2167;53.448;9.984;2023-03-21T16:24:06;6.83;;;4.57;;
4307;SDS011;2167;53.448;9.984;2023-03-21T16:26:33;9.40;;;5.53;;
4307;SDS011;2167;53.448;9.984;2023-03-21T16:29:02;9.50;;;5.00;;
4307;SDS011;2167;53.448;9.984;2023-03-21T16:31:29;9.87;;;5.53;;
4307;SDS011;2167;53.448;9.984;2023-03-21T16:33:57;6.97;;;3.77;;
4307;SDS011;2167;53.448;9.984;2023-03-21T16:36:24;6.63;;;3.57;;
4307;SDS011;2167;53.448;9.984;2023-03-21T16:38:55;11.67;;;6.10;;
4307;SDS011;2167;53.448;9.984;2023-03-21T16:41:22;9.17;;;5.53;;
4307;SDS011;2167;53.448;9.984;2023-03-21T16:43:49;8.73;;;6.03;;
4307;SDS011;2167;53.448;9.984;2023-03-21T16:48:46;10.07;;;6.23;;
4307;SDS011;2167;53.448;9.984;2023-03-21T16:51:13;8.93;;;5.77;;
4307;SDS011;2167;53.448;9.984;2023-03-21T16:53:41;9.60;;;6.10;;
4307;SDS011;2167;53.448;9.984;2023-03-21T16:56:17;13.70;;;6.00;;
4307;SDS011;2167;53.448;9.984;2023-03-21T16:59:19;9.30;;;5.33;;
4307;SDS011;2167;53.448;9.984;2023-03-21T17:01:45;10.33;;;6.77;;
4307;SDS011;2167;53.448;9.984;2023-03-21T17:04:12;9.10;;;6.17;;
4307;SDS011;2167;53.448;9.984;2023-03-21T17:06:42;7.37;;;5.40;;
4307;SDS011;2167;53.448;9.984;2023-03-21T17:09:11;13.98;;;8.30;;
4307;SDS011;2167;53.448;9.984;2023-03-21T17:11:38;10.70;;;6.13;;
4307;SDS011;2167;53.448;9.984;2023-03-21T17:14:05;11.73;;;6.77;;
4307;SDS011;2167;53.448;9.984;2023-03-21T17:16:32;13.67;;;6.87;;
4307;SDS011;2167;53.448;9.984;2023-03-21T17:18:58;10.93;;;6.43;;